Time;durP1;ratioP1;P1;durP2;ratioP2;P2;SDS_P1;SDS_P2;PMS_P1;PMS_P2;Temp;Humidity;BMP_temperature;BMP_pressure;BME280_temperature;BME280_humidity;BME280_pressure;Samples;Min_cycle;Max_cycle;Signal;HPM_P1;HPM_P2
2022/07/22 00:02:27;;;;;;;7.65;6.20;;;;;;;;;;5000015;28;20308;-51
2022/07/22 00:04:53;;;;;;;6.90;6.30;;;;;;;;;;4996979;28;20233;-51
2022/07/22 00:07:19;;;;;;;6.60;5.97;;;;;;;;;;4999477;28;20237;-52
2022/07/22 00:09:45;;;;;;;6.82;6.22;;;;;;;;;;4999327;28;20719;-54
2022/07/22 00:12:12;;;;;;;7.03;6.32;;;;;;;;;;5000273;28;20236;-53
2022/07/22 00:14:38;;;;;;;6.55;6.05;;;;;;;;;;4995061;28;20244;-52
2022/07/22 00:17:05;;;;;;;6.22;5.72;;;;;;;;;;5006484;28;20230;-53
2022/07/22 00:19:32;;;;;;;6.32;5.75;;;;;;;;;;5003576;28;20239;-54
2022/07/22 00:21:59;;;;;;;6.85;6.20;;;;;;;;;;5006169;28;20237;-51
2022/07/22 00:24:25;;;;;;;6.57;6.03;;;;;;;;;;5004871;28;20229;-51
2022/07/22 00:26:51;;;;;;;6.40;5.80;;;;;;;;;;4998642;28;21350;-52
2022/07/22 00:29:18;;;;;;;6.20;5.70;;;;;;;;;;5002052;28;20729;-55
2022/07/22 00:31:44;;;;;;;5.63;5.13;;;;;;;;;;5002074;28;20237;-54
2022/07/22 00:34:10;;;;;;;6.55;5.93;;;;;;;;;;5004368;28;20242;-51
2022/07/22 00:36:41;;;;;;;6.53;5.93;;;;;;;;;;5000382;28;20237;-52
2022/07/22 00:39:07;;;;;;;7.03;5.82;;;;;;;;;;4998509;28;20225;-54
2022/07/22 00:41:34;;;;;;;5.82;5.32;;;;;;;;;;5004022;28;20283;-53
2022/07/22 00:44:01;;;;;;;5.57;5.07;;;;;;;;;;4998195;28;20264;-52
2022/07/22 00:46:28;;;;;;;7.60;5.28;;;;;;;;;;5001970;28;20228;-53
2022/07/22 00:48:54;;;;;;;6.22;5.22;;;;;;;;;;5003445;28;20229;-52
2022/07/22 00:51:21;;;;;;;6.60;6.00;;;;;;;;;;5010857;28;20237;-52
2022/07/22 00:53:49;;;;;;;6.00;5.50;;;;;;;;;;4996818;28;20288;-53
2022/07/22 00:56:16;;;;;;;5.43;4.93;;;;;;;;;;4999747;28;20312;-52
2022/07/22 00:58:42;;;;;;;6.88;5.43;;;;;;;;;;5001501;28;20308;-52
2022/07/22 01:01:09;;;;;;;5.90;5.40;;;;;;;;;;5005044;28;20237;-52
2022/07/22 01:03:35;;;;;;;5.78;5.32;;;;;;;;;;5005184;28;20319;-52
2022/07/22 01:06:02;;;;;;;5.10;4.68;;;;;;;;;;4999548;28;20233;-51
2022/07/22 01:08:28;;;;;;;5.65;5.15;;;;;;;;;;5003472;28;20718;-52
2022/07/22 01:11:06;;;;;;;6.63;5.07;;;;;;;;;;5002883;28;20320;-52
2022/07/22 01:13:32;;;;;;;5.63;5.05;;;;;;;;;;5000727;28;20241;-51
2022/07/22 01:15:59;;;;;;;6.45;5.85;;;;;;;;;;4998027;28;20236;-51
2022/07/22 01:18:25;;;;;;;5.20;4.75;;;;;;;;;;4998211;28;20234;-52
2022/07/22 01:20:53;;;;;;;5.43;4.93;;;;;;;;;;5000282;28;20237;-52
2022/07/22 01:23:19;;;;;;;5.63;5.10;;;;;;;;;;4998521;28;20228;-52
2022/07/22 01:25:46;;;;;;;5.57;4.60;;;;;;;;;;5007558;28;20316;-53
2022/07/22 01:28:12;;;;;;;6.03;4.85;;;;;;;;;;5006989;28;20488;-52
2022/07/22 01:30:38;;;;;;;5.25;4.80;;;;;;;;;;5003798;28;20682;-52
2022/07/22 01:33:05;;;;;;;5.20;4.68;;;;;;;;;;4999941;28;20230;-52
2022/07/22 01:35:31;;;;;;;5.15;4.72;;;;;;;;;;5000946;28;20236;-52
2022/07/22 01:37:59;;;;;;;4.63;4.22;;;;;;;;;;4997625;28;20240;-52
2022/07/22 01:40:25;;;;;;;5.30;4.47;;;;;;;;;;5001591;28;20248;-51
2022/07/22 01:42:52;;;;;;;5.57;4.60;;;;;;;;;;5000891;28;20252;-53
2022/07/22 01:45:18;;;;;;;4.50;4.10;;;;;;;;;;5007076;28;20233;-52
2022/07/22 01:47:44;;;;;;;4.68;4.28;;;;;;;;;;5002532;28;20241;-52
2022/07/22 01:50:11;;;;;;;5.07;4.65;;;;;;;;;;5001740;28;20734;-52
2022/07/22 01:52:38;;;;;;;5.10;4.70;;;;;;;;;;5001739;28;20242;-51
2022/07/22 01:55:06;;;;;;;5.15;4.65;;;;;;;;;;5001200;28;20234;-51
2022/07/22 01:57:34;;;;;;;6.40;4.90;;;;;;;;;;4995807;28;20239;-52
2022/07/22 02:00:00;;;;;;;5.95;5.38;;;;;;;;;;4998477;28;20237;-52
2022/07/22 02:02:26;;;;;;;4.57;4.28;;;;;;;;;;4997272;28;20233;-51
2022/07/22 02:04:53;;;;;;;5.63;4.78;;;;;;;;;;5003447;28;20228;-51
2022/07/22 02:07:19;;;;;;;5.88;5.25;;;;;;;;;;4998677;28;20621;-51
2022/07/22 02:09:45;;;;;;;5.82;5.32;;;;;;;;;;4997725;28;20229;-53
2022/07/22 02:12:13;;;;;;;5.28;4.78;;;;;;;;;;4999165;28;20243;-51
2022/07/22 02:14:39;;;;;;;6.80;5.90;;;;;;;;;;5001560;28;20241;-51
2022/07/22 02:17:06;;;;;;;5.28;4.85;;;;;;;;;;4998937;28;20229;-51
2022/07/22 02:19:32;;;;;;;5.85;5.10;;;;;;;;;;4995035;28;20741;-54
2022/07/22 02:21:58;;;;;;;7.43;5.28;;;;;;;;;;5006449;28;20485;-51
2022/07/22 02:24:25;;;;;;;5.53;5.03;;;;;;;;;;5000601;28;20237;-51
2022/07/22 02:26:51;;;;;;;6.30;5.70;;;;;;;;;;5001907;28;20233;-52
2022/07/22 02:29:19;;;;;;;6.28;5.05;;;;;;;;;;5001776;28;20233;-52
2022/07/22 02:31:45;;;;;;;6.90;4.97;;;;;;;;;;5002809;28;20244;-52
2022/07/22 02:34:11;;;;;;;5.75;5.25;;;;;;;;;;4998175;28;20237;-52
2022/07/22 02:36:38;;;;;;;5.43;5.03;;;;;;;;;;5001418;28;20236;-51
2022/07/22 02:39:04;;;;;;;5.93;5.20;;;;;;;;;;4995969;28;20256;-52
2022/07/22 02:41:30;;;;;;;7.07;6.38;;;;;;;;;;5008873;28;20751;-53
2022/07/22 02:43:57;;;;;;;6.03;5.45;;;;;;;;;;4995397;28;20347;-52
2022/07/22 02:46:25;;;;;;;6.30;5.07;;;;;;;;;;5010967;28;20232;-51
2022/07/22 02:48:52;;;;;;;5.72;4.88;;;;;;;;;;5003671;28;20237;-53
2022/07/22 02:51:18;;;;;;;6.35;5.80;;;;;;;;;;4997177;28;20237;-53
2022/07/22 02:53:45;;;;;;;7.35;6.68;;;;;;;;;;4989771;28;20233;-51
2022/07/22 02:56:11;;;;;;;6.18;5.57;;;;;;;;;;4999348;28;20236;-52
2022/07/22 02:58:37;;;;;;;6.53;5.93;;;;;;;;;;5004620;28;20719;-52
2022/07/22 03:01:04;;;;;;;6.80;6.20;;;;;;;;;;4998825;28;20236;-52
2022/07/22 03:03:31;;;;;;;8.00;6.15;;;;;;;;;;4999676;28;20237;-52
2022/07/22 03:05:58;;;;;;;6.32;5.82;;;;;;;;;;4999166;28;20234;-51
2022/07/22 03:08:25;;;;;;;7.50;6.38;;;;;;;;;;4995875;28;20287;-52
2022/07/22 03:10:51;;;;;;;6.10;5.60;;;;;;;;;;4997674;28;20239;-52
2022/07/22 03:13:18;;;;;;;6.22;5.72;;;;;;;;;;5005042;28;20468;-52
2022/07/22 03:15:44;;;;;;;6.05;5.65;;;;;;;;;;5005085;28;20248;-52
2022/07/22 03:18:10;;;;;;;7.20;6.53;;;;;;;;;;5007817;28;20237;-52
2022/07/22 03:20:38;;;;;;;5.93;5.45;;;;;;;;;;5005408;28;20232;-52
2022/07/22 03:23:05;;;;;;;6.57;5.85;;;;;;;;;;5005262;28;20324;-51
2022/07/22 03:25:32;;;;;;;6.93;6.32;;;;;;;;;;5002660;28;20225;-50
2022/07/22 03:27:58;;;;;;;7.03;6.47;;;;;;;;;;5005458;28;20271;-51
2022/07/22 03:30:25;;;;;;;7.20;6.40;;;;;;;;;;5001717;28;20237;-52
2022/07/22 03:32:51;;;;;;;7.93;7.28;;;;;;;;;;5010850;28;20224;-52
2022/07/22 03:35:17;;;;;;;8.23;6.88;;;;;;;;;;5002452;28;20255;-51
2022/07/22 03:37:45;;;;;;;6.60;6.10;;;;;;;;;;4998433;28;20711;-51
2022/07/22 03:40:12;;;;;;;7.68;6.97;;;;;;;;;;5001841;28;20240;-51
2022/07/22 03:42:38;;;;;;;6.93;6.28;;;;;;;;;;5014395;28;20225;-51
2022/07/22 03:45:05;;;;;;;9.13;7.60;;;;;;;;;;5001644;28;20248;-52
2022/07/22 03:47:31;;;;;;;7.85;7.15;;;;;;;;;;5008977;28;20572;-52
2022/07/22 03:49:59;;;;;;;7.40;6.80;;;;;;;;;;5001451;28;20378;-51
2022/07/22 03:52:25;;;;;;;8.00;7.20;;;;;;;;;;5000199;28;20466;-51
2022/07/22 03:54:53;;;;;;;7.38;6.78;;;;;;;;;;5003317;28;20239;-51
2022/07/22 03:57:20;;;;;;;7.40;6.80;;;;;;;;;;5007917;28;20727;-51
2022/07/22 03:59:46;;;;;;;8.57;7.63;;;;;;;;;;5005301;28;20232;-53
2022/07/22 04:02:13;;;;;;;7.40;6.70;;;;;;;;;;5010811;28;20629;-52
2022/07/22 04:04:39;;;;;;;7.35;6.65;;;;;;;;;;5010009;28;22574;-52
2022/07/22 04:07:06;;;;;;;7.65;6.95;;;;;;;;;;5004577;28;20237;-52
2022/07/22 04:09:32;;;;;;;7.63;6.93;;;;;;;;;;5004531;28;20655;-53
2022/07/22 04:12:00;;;;;;;8.32;7.63;;;;;;;;;;4995673;28;20723;-52
2022/07/22 04:14:26;;;;;;;8.40;7.70;;;;;;;;;;5000389;28;20641;-52
2022/07/22 04:16:52;;;;;;;8.18;7.47;;;;;;;;;;5000401;28;20257;-52
2022/07/22 04:19:19;;;;;;;7.97;7.20;;;;;;;;;;5003629;28;20240;-52
2022/07/22 04:21:45;;;;;;;8.25;7.47;;;;;;;;;;5002758;28;20229;-51
2022/07/22 04:24:12;;;;;;;10.13;7.57;;;;;;;;;;5003182;28;20237;-52
2022/07/22 04:26:38;;;;;;;9.52;8.25;;;;;;;;;;5001429;28;20237;-51
2022/07/22 04:29:06;;;;;;;10.50;7.50;;;;;;;;;;5002198;28;20272;-52
2022/07/22 04:31:32;;;;;;;8.57;7.68;;;;;;;;;;5005367;28;20237;-52
2022/07/22 04:33:59;;;;;;;9.30;8.50;;;;;;;;;;5012886;28;20243;-52
2022/07/22 04:36:25;;;;;;;9.55;8.75;;;;;;;;;;5000693;28;20319;-52
2022/07/22 04:38:51;;;;;;;8.98;8.07;;;;;;;;;;5001287;28;20327;-52
2022/07/22 04:41:18;;;;;;;10.55;9.55;;;;;;;;;;4992522;28;20234;-52
2022/07/22 04:43:44;;;;;;;10.27;9.43;;;;;;;;;;5011442;28;20236;-51
2022/07/22 04:46:12;;;;;;;10.40;9.50;;;;;;;;;;5001157;28;20702;-52
2022/07/22 04:48:38;;;;;;;10.50;9.45;;;;;;;;;;5001374;28;20706;-51
2022/07/22 04:51:04;;;;;;;10.20;9.30;;;;;;;;;;5000336;28;20229;-52
2022/07/22 04:53:31;;;;;;;9.70;8.80;;;;;;;;;;5007163;28;20582;-52
2022/07/22 04:55:57;;;;;;;9.40;8.50;;;;;;;;;;4998520;28;20252;-52
2022/07/22 04:58:23;;;;;;;10.25;7.57;;;;;;;;;;5002932;28;20233;-51
2022/07/22 05:00:50;;;;;;;9.88;8.88;;;;;;;;;;4998619;28;20245;-52
2022/07/22 05:03:18;;;;;;;10.18;9.25;;;;;;;;;;5000395;28;20230;-57
2022/07/22 05:05:45;;;;;;;13.18;9.02;;;;;;;;;;4997249;28;20249;-53
2022/07/22 05:08:12;;;;;;;10.75;9.68;;;;;;;;;;5002336;28;20241;-51
2022/07/22 05:10:38;;;;;;;12.55;9.68;;;;;;;;;;5001058;28;20240;-52
2022/07/22 05:13:04;;;;;;;10.60;9.60;;;;;;;;;;5002128;28;20226;-52
2022/07/22 05:15:31;;;;;;;10.32;8.73;;;;;;;;;;5003526;28;20225;-52
2022/07/22 05:17:57;;;;;;;10.98;9.98;;;;;;;;;;4996873;28;20237;-52
2022/07/22 05:20:25;;;;;;;9.30;8.45;;;;;;;;;;5004117;28;20241;-52
2022/07/22 05:22:51;;;;;;;12.15;10.35;;;;;;;;;;4997410;28;21991;-51
2022/07/22 05:25:17;;;;;;;11.13;9.93;;;;;;;;;;5011133;28;20279;-53
2022/07/22 05:27:49;;;;;;;9.70;8.80;;;;;;;;;;5002211;28;20798;-52
2022/07/22 05:30:16;;;;;;;10.88;9.85;;;;;;;;;;5001333;28;20245;-52
2022/07/22 05:32:42;;;;;;;10.00;9.18;;;;;;;;;;5001398;28;20233;-52
2022/07/22 05:35:09;;;;;;;10.18;9.27;;;;;;;;;;5005842;28;20241;-53
2022/07/22 05:37:37;;;;;;;11.25;10.15;;;;;;;;;;5002188;28;20237;-54
2022/07/22 05:40:03;;;;;;;10.32;9.45;;;;;;;;;;5004247;28;20236;-52
2022/07/22 05:42:30;;;;;;;10.60;9.60;;;;;;;;;;4998598;28;20229;-52
2022/07/22 05:44:56;;;;;;;10.02;9.13;;;;;;;;;;4999443;28;20319;-53
2022/07/22 05:47:22;;;;;;;11.40;10.40;;;;;;;;;;5001703;28;20237;-51
2022/07/22 05:49:49;;;;;;;11.43;10.43;;;;;;;;;;5001383;28;20274;-53
2022/07/22 05:52:15;;;;;;;10.15;8.57;;;;;;;;;;5001064;28;20610;-52
2022/07/22 05:54:43;;;;;;;10.52;9.52;;;;;;;;;;4999085;28;20244;-52
2022/07/22 05:57:09;;;;;;;11.23;10.13;;;;;;;;;;5004680;28;20252;-53
2022/07/22 05:59:36;;;;;;;12.18;10.98;;;;;;;;;;4995308;28;20658;-51
2022/07/22 06:02:02;;;;;;;12.30;11.18;;;;;;;;;;5000570;28;20628;-51
2022/07/22 06:04:29;;;;;;;11.10;10.10;;;;;;;;;;5001065;28;20229;-54
2022/07/22 06:06:55;;;;;;;10.50;9.50;;;;;;;;;;4998627;28;20705;-52
2022/07/22 06:09:21;;;;;;;9.48;8.68;;;;;;;;;;4999538;28;20303;-54
2022/07/22 06:11:49;;;;;;;11.10;10.05;;;;;;;;;;4997178;28;20259;-52
2022/07/22 06:14:15;;;;;;;9.38;8.60;;;;;;;;;;5000560;28;20617;-51
2022/07/22 06:16:42;;;;;;;10.98;9.98;;;;;;;;;;5002793;28;20256;-51
2022/07/22 06:19:08;;;;;;;12.25;11.15;;;;;;;;;;5000808;28;20788;-53
2022/07/22 06:21:36;;;;;;;10.57;9.57;;;;;;;;;;5001564;28;20236;-52
2022/07/22 06:24:02;;;;;;;10.25;9.35;;;;;;;;;;5003345;28;20292;-52
2022/07/22 06:26:28;;;;;;;11.20;10.25;;;;;;;;;;4996393;28;20228;-52
2022/07/22 06:28:56;;;;;;;10.52;9.63;;;;;;;;;;5005672;28;20229;-52
2022/07/22 06:31:22;;;;;;;11.02;9.93;;;;;;;;;;5003187;28;20237;-53
2022/07/22 06:33:49;;;;;;;10.98;9.80;;;;;;;;;;5001917;28;20238;-51
2022/07/22 06:36:17;;;;;;;9.88;9.07;;;;;;;;;;5011623;28;20294;-53
2022/07/22 06:38:43;;;;;;;9.23;8.38;;;;;;;;;;4997985;28;20233;-52
2022/07/22 06:41:10;;;;;;;11.75;10.65;;;;;;;;;;5000412;28;20758;-51
2022/07/22 06:43:36;;;;;;;8.45;7.75;;;;;;;;;;5001166;28;20608;-51
2022/07/22 06:46:04;;;;;;;8.82;8.13;;;;;;;;;;4995963;28;20252;-52
2022/07/22 06:48:30;;;;;;;10.20;9.23;;;;;;;;;;5009160;28;20840;-52
2022/07/22 06:50:57;;;;;;;10.45;9.55;;;;;;;;;;5001482;28;20245;-52
2022/07/22 06:53:23;;;;;;;9.93;9.02;;;;;;;;;;4997230;28;20229;-52
2022/07/22 06:55:50;;;;;;;9.27;8.57;;;;;;;;;;5006284;28;20236;-51
2022/07/22 06:58:16;;;;;;;10.10;9.25;;;;;;;;;;4998871;28;20230;-52
2022/07/22 07:00:42;;;;;;;9.18;8.38;;;;;;;;;;4997662;28;20237;-52
2022/07/22 07:03:10;;;;;;;10.43;9.35;;;;;;;;;;5001787;28;20241;-51
2022/07/22 07:05:36;;;;;;;10.07;9.07;;;;;;;;;;5003296;28;20251;-51
2022/07/22 07:08:03;;;;;;;11.65;10.60;;;;;;;;;;4998233;28;20320;-52
2022/07/22 07:10:29;;;;;;;10.52;9.55;;;;;;;;;;5001495;28;20232;-50
2022/07/22 07:12:56;;;;;;;11.30;10.18;;;;;;;;;;4999049;28;20351;-52
2022/07/22 07:15:22;;;;;;;10.52;9.52;;;;;;;;;;5000085;28;20263;-52
2022/07/22 07:17:48;;;;;;;10.63;9.77;;;;;;;;;;5003918;28;20230;-53
2022/07/22 07:20:16;;;;;;;11.65;10.73;;;;;;;;;;5008153;28;20233;-53
2022/07/22 07:22:42;;;;;;;11.07;10.20;;;;;;;;;;5002377;28;20239;-52
2022/07/22 07:25:09;;;;;;;8.35;7.75;;;;;;;;;;5001068;28;20251;-51
2022/07/22 07:27:36;;;;;;;10.50;9.60;;;;;;;;;;4997574;28;20281;-51
2022/07/22 07:30:03;;;;;;;9.60;8.77;;;;;;;;;;4997812;28;20247;-52
2022/07/22 07:32:29;;;;;;;9.40;8.60;;;;;;;;;;5006170;28;20235;-51
2022/07/22 07:34:55;;;;;;;10.15;8.82;;;;;;;;;;4997594;28;20329;-52
2022/07/22 07:37:23;;;;;;;9.10;8.32;;;;;;;;;;5002083;28;20781;-54
2022/07/22 07:39:50;;;;;;;8.82;8.02;;;;;;;;;;5004702;28;20228;-51
2022/07/22 07:42:16;;;;;;;10.18;8.40;;;;;;;;;;5008219;28;20232;-53
2022/07/22 07:44:42;;;;;;;8.68;7.75;;;;;;;;;;5000875;28;20256;-53
2022/07/22 07:47:09;;;;;;;8.20;7.60;;;;;;;;;;5002635;28;20268;-53
2022/07/22 07:49:35;;;;;;;8.52;7.25;;;;;;;;;;5005591;28;20706;-51
2022/07/22 07:52:02;;;;;;;7.55;6.70;;;;;;;;;;5002335;28;20242;-53
2022/07/22 07:54:29;;;;;;;8.65;7.80;;;;;;;;;;4989873;28;20237;-53
2022/07/22 07:56:55;;;;;;;7.88;7.00;;;;;;;;;;5005233;28;20237;-53
2022/07/22 07:59:22;;;;;;;7.07;6.38;;;;;;;;;;4998128;28;20245;-56
2022/07/22 08:01:48;;;;;;;7.60;6.90;;;;;;;;;;4997062;28;20380;-53
2022/07/22 08:04:15;;;;;;;8.25;7.55;;;;;;;;;;4995525;28;20279;-52
2022/07/22 08:06:41;;;;;;;7.50;6.80;;;;;;;;;;4994144;28;20281;-53
2022/07/22 08:09:07;;;;;;;6.57;6.03;;;;;;;;;;4997927;28;20237;-53
2022/07/22 08:11:35;;;;;;;6.88;6.38;;;;;;;;;;4999038;28;20718;-53
2022/07/22 08:14:01;;;;;;;6.13;5.60;;;;;;;;;;4994561;28;20237;-54
2022/07/22 08:16:28;;;;;;;5.13;4.72;;;;;;;;;;4997902;28;20506;-52
2022/07/22 08:18:54;;;;;;;5.68;5.18;;;;;;;;;;4996911;28;20737;-53
2022/07/22 08:21:21;;;;;;;6.00;5.57;;;;;;;;;;4997490;28;20256;-52
2022/07/22 08:23:47;;;;;;;5.53;5.13;;;;;;;;;;4996948;28;20237;-52
2022/07/22 08:26:14;;;;;;;5.70;5.20;;;;;;;;;;4996918;28;20240;-51
2022/07/22 08:28:41;;;;;;;4.53;4.22;;;;;;;;;;4995105;28;20272;-52
2022/07/22 08:31:08;;;;;;;6.55;5.40;;;;;;;;;;5001187;28;20257;-53
2022/07/22 08:33:34;;;;;;;5.90;5.50;;;;;;;;;;5001554;28;20530;-53
2022/07/22 08:36:01;;;;;;;9.68;4.85;;;;;;;;;;5001770;28;20276;-54
2022/07/22 08:38:28;;;;;;;5.25;4.85;;;;;;;;;;4996710;28;20247;-52
2022/07/22 08:40:55;;;;;;;5.70;5.18;;;;;;;;;;4996349;28;20431;-52
2022/07/22 08:43:21;;;;;;;5.22;4.70;;;;;;;;;;5001240;28;20473;-55
2022/07/22 08:45:49;;;;;;;6.18;5.57;;;;;;;;;;5000331;28;20236;-50
2022/07/22 08:48:15;;;;;;;5.35;4.85;;;;;;;;;;4998096;28;20246;-52
2022/07/22 08:50:42;;;;;;;6.35;5.00;;;;;;;;;;4995532;28;20252;-54
2022/07/22 08:53:10;;;;;;;6.00;5.60;;;;;;;;;;4999064;28;21255;-54
2022/07/22 08:55:40;;;;;;;6.25;5.63;;;;;;;;;;4993828;28;20566;-53
2022/07/22 08:58:07;;;;;;;7.28;5.50;;;;;;;;;;4991896;28;20242;-52
2022/07/22 09:00:33;;;;;;;5.35;4.95;;;;;;;;;;4993238;28;20240;-52
2022/07/22 09:03:01;;;;;;;6.30;5.70;;;;;;;;;;4991307;28;20254;-52
2022/07/22 09:05:33;;;;;;;4.35;4.00;;;;;;;;;;5000401;28;20237;-51
2022/07/22 09:07:59;;;;;;;4.97;4.57;;;;;;;;;;4994489;28;20299;-54
2022/07/22 09:10:31;;;;;;;5.18;4.10;;;;;;;;;;4996815;28;20237;-52
2022/07/22 09:12:59;;;;;;;4.82;4.53;;;;;;;;;;4996010;28;20241;-52
2022/07/22 09:15:26;;;;;;;6.90;5.07;;;;;;;;;;4996727;28;20252;-52
2022/07/22 09:17:52;;;;;;;5.07;4.68;;;;;;;;;;4989133;28;20243;-54
2022/07/22 09:20:20;;;;;;;5.65;4.93;;;;;;;;;;4995852;28;20240;-52
2022/07/22 09:22:47;;;;;;;5.22;4.70;;;;;;;;;;4995623;28;20229;-51
2022/07/22 09:25:21;;;;;;;5.07;4.55;;;;;;;;;;4996418;28;20245;-52
2022/07/22 09:27:48;;;;;;;5.07;4.57;;;;;;;;;;4993950;28;20247;-52
2022/07/22 09:30:15;;;;;;;4.05;3.65;;;;;;;;;;4997584;28;20766;-50
2022/07/22 09:32:42;;;;;;;4.65;3.53;;;;;;;;;;4993736;28;20232;-51
2022/07/22 09:35:10;;;;;;;3.10;2.90;;;;;;;;;;4993627;28;20233;-52
2022/07/22 09:37:37;;;;;;;3.80;3.53;;;;;;;;;;4995476;28;20252;-52
2022/07/22 09:40:14;;;;;;;3.85;3.13;;;;;;;;;;4995528;28;20271;-51
2022/07/22 09:42:47;;;;;;;4.72;4.32;;;;;;;;;;4995152;28;20240;-50
2022/07/22 09:45:14;;;;;;;4.80;3.90;;;;;;;;;;4992760;28;20229;-52
2022/07/22 09:47:41;;;;;;;3.88;3.58;;;;;;;;;;4992837;28;20245;-51
2022/07/22 09:50:14;;;;;;;3.60;3.33;;;;;;;;;;4993127;28;20233;-52
2022/07/22 09:52:42;;;;;;;8.48;5.10;;;;;;;;;;4991779;28;20248;-51
2022/07/22 09:55:09;;;;;;;3.97;3.08;;;;;;;;;;4994682;28;20264;-53
2022/07/22 09:57:35;;;;;;;4.28;3.45;;;;;;;;;;4996638;28;20230;-51
2022/07/22 10:00:01;;;;;;;4.32;3.20;;;;;;;;;;4994100;28;20233;-50
2022/07/22 10:02:28;;;;;;;3.08;2.88;;;;;;;;;;4997242;28;20396;-51
2022/07/22 10:04:56;;;;;;;2.45;2.35;;;;;;;;;;4997281;28;20267;-50
2022/07/22 10:07:23;;;;;;;3.47;2.75;;;;;;;;;;4996353;28;20276;-55
2022/07/22 10:09:51;;;;;;;2.97;2.78;;;;;;;;;;4992795;28;20233;-51
2022/07/22 10:12:18;;;;;;;2.60;2.40;;;;;;;;;;4996124;28;20715;-50
2022/07/22 10:14:45;;;;;;;2.80;2.60;;;;;;;;;;4997763;28;20238;-51
2022/07/22 10:17:12;;;;;;;2.95;2.75;;;;;;;;;;4999201;28;20613;-51
2022/07/22 10:19:39;;;;;;;2.90;2.67;;;;;;;;;;4997579;28;20236;-52
2022/07/22 10:22:05;;;;;;;4.57;2.83;;;;;;;;;;4992061;28;20237;-51
2022/07/22 10:24:32;;;;;;;3.95;3.65;;;;;;;;;;4993466;28;20339;-52
2022/07/22 10:27:01;;;;;;;3.85;3.10;;;;;;;;;;4995981;28;20244;-52
2022/07/22 10:29:28;;;;;;;3.38;3.08;;;;;;;;;;4996357;28;20228;-50
2022/07/22 10:32:22;;;;;;;3.25;3.05;;;;;;;;;;4995149;28;20264;-51
2022/07/22 10:35:16;;;;;;;3.97;3.10;;;;;;;;;;4996099;28;20229;-51
2022/07/22 10:37:43;;;;;;;3.80;3.10;;;;;;;;;;4994119;28;20244;-51
2022/07/22 10:40:11;;;;;;;3.05;2.85;;;;;;;;;;4996798;28;20241;-51
2022/07/22 10:42:52;;;;;;;3.90;3.10;;;;;;;;;;4992107;28;20236;-53
2022/07/22 10:45:21;;;;;;;3.28;3.08;;;;;;;;;;4991727;28;20233;-52
2022/07/22 10:47:53;;;;;;;3.00;2.80;;;;;;;;;;4990571;28;20235;-51
2022/07/22 10:50:35;;;;;;;2.42;2.33;;;;;;;;;;4993049;28;20328;-51
2022/07/22 10:53:01;;;;;;;2.80;2.60;;;;;;;;;;4978883;28;20233;-51
2022/07/22 10:55:27;;;;;;;3.13;2.92;;;;;;;;;;4994043;28;20240;-51
2022/07/22 10:57:54;;;;;;;3.35;3.15;;;;;;;;;;4996362;28;20260;-52
2022/07/22 11:00:22;;;;;;;2.70;2.58;;;;;;;;;;4993786;28;20233;-50
2022/07/22 11:02:48;;;;;;;3.28;3.00;;;;;;;;;;4994132;28;20233;-51
2022/07/22 11:05:14;;;;;;;3.22;3.00;;;;;;;;;;4995673;28;20251;-50
2022/07/22 11:07:41;;;;;;;3.55;3.30;;;;;;;;;;4992587;28;20908;-50
2022/07/22 11:10:11;;;;;;;3.28;3.08;;;;;;;;;;4991486;28;20225;-51
2022/07/22 11:12:38;;;;;;;3.70;3.45;;;;;;;;;;4992953;28;20255;-51
2022/07/22 11:15:06;;;;;;;3.78;3.55;;;;;;;;;;4990941;28;20236;-52
2022/07/22 11:17:34;;;;;;;3.60;3.40;;;;;;;;;;4990325;28;20720;-52
2022/07/22 11:20:01;;;;;;;4.18;3.88;;;;;;;;;;4990668;28;20325;-53
2022/07/22 11:22:27;;;;;;;4.40;4.10;;;;;;;;;;4985530;28;20764;-52
2022/07/22 11:24:53;;;;;;;4.38;3.97;;;;;;;;;;4990771;28;21221;-55
2022/07/22 11:27:21;;;;;;;3.65;3.22;;;;;;;;;;4989320;28;20730;-52
2022/07/22 11:29:48;;;;;;;3.35;3.15;;;;;;;;;;4985343;28;20233;-53
2022/07/22 11:32:15;;;;;;;3.28;3.08;;;;;;;;;;4988493;28;20241;-52
2022/07/22 11:34:45;;;;;;;3.55;3.25;;;;;;;;;;4988255;28;20233;-52
2022/07/22 11:37:12;;;;;;;3.03;2.83;;;;;;;;;;4991359;28;20790;-53
2022/07/22 11:39:38;;;;;;;3.78;3.47;;;;;;;;;;4991612;28;20237;-52
2022/07/22 11:42:05;;;;;;;3.60;3.30;;;;;;;;;;4992193;28;20240;-51
2022/07/22 11:44:32;;;;;;;3.00;2.80;;;;;;;;;;4987630;28;20237;-51
2022/07/22 11:46:59;;;;;;;3.60;3.30;;;;;;;;;;4991446;28;20585;-51
2022/07/22 11:49:26;;;;;;;4.63;3.13;;;;;;;;;;4993844;28;20240;-50
2022/07/22 11:51:54;;;;;;;3.10;2.90;;;;;;;;;;4991022;28;20226;-51
2022/07/22 11:54:20;;;;;;;3.63;3.30;;;;;;;;;;4989427;28;20237;-51
2022/07/22 11:56:46;;;;;;;2.90;2.70;;;;;;;;;;4991619;28;20248;-52
2022/07/22 11:59:14;;;;;;;3.60;3.30;;;;;;;;;;4991658;28;20271;-50
2022/07/22 12:01:40;;;;;;;2.92;2.72;;;;;;;;;;4991394;28;20735;-51
2022/07/22 12:04:07;;;;;;;3.13;2.88;;;;;;;;;;4993838;28;20444;-51
2022/07/22 12:06:37;;;;;;;3.20;3.00;;;;;;;;;;4993847;28;20237;-51
2022/07/22 12:09:06;;;;;;;2.88;2.67;;;;;;;;;;4993189;28;20371;-54
2022/07/22 12:11:33;;;;;;;2.75;2.55;;;;;;;;;;4994417;28;20448;-53
2022/07/22 12:14:05;;;;;;;2.72;2.63;;;;;;;;;;4992963;28;20237;-52
2022/07/22 12:16:31;;;;;;;3.47;2.42;;;;;;;;;;4990135;28;20240;-52
2022/07/22 12:18:59;;;;;;;2.60;2.42;;;;;;;;;;4993042;28;20236;-53
2022/07/22 12:21:27;;;;;;;2.78;2.58;;;;;;;;;;4990113;28;20245;-52
2022/07/22 12:23:55;;;;;;;3.10;2.90;;;;;;;;;;4992089;28;20334;-52
2022/07/22 12:26:36;;;;;;;2.92;2.33;;;;;;;;;;4991860;28;20256;-52
2022/07/22 12:29:14;;;;;;;2.40;2.30;;;;;;;;;;4992273;28;20236;-51
2022/07/22 12:31:42;;;;;;;2.35;2.25;;;;;;;;;;4993597;28;20240;-51
2022/07/22 12:34:08;;;;;;;2.67;2.50;;;;;;;;;;4991322;28;20233;-51
2022/07/22 12:36:35;;;;;;;2.38;2.28;;;;;;;;;;4991657;28;20234;-52
2022/07/22 12:39:11;;;;;;;2.58;2.38;;;;;;;;;;4992158;28;20240;-53
2022/07/22 12:41:45;;;;;;;2.63;2.40;;;;;;;;;;4995658;28;20252;-51
2022/07/22 12:44:16;;;;;;;5.30;1.95;;;;;;;;;;4991621;28;20225;-53
2022/07/22 12:46:45;;;;;;;2.40;2.22;;;;;;;;;;4992096;28;20233;-51
2022/07/22 12:49:11;;;;;;;2.10;2.00;;;;;;;;;;4991292;28;20236;-51
2022/07/22 12:51:38;;;;;;;1.85;1.75;;;;;;;;;;4987811;28;20245;-50
2022/07/22 12:54:04;;;;;;;2.08;1.90;;;;;;;;;;4992382;28;20239;-52
2022/07/22 12:56:30;;;;;;;1.77;1.67;;;;;;;;;;4991872;28;20241;-53
2022/07/22 12:58:57;;;;;;;1.85;1.75;;;;;;;;;;4993980;28;20248;-53
2022/07/22 13:01:24;;;;;;;1.85;1.75;;;;;;;;;;4990534;28;21057;-51
2022/07/22 13:03:51;;;;;;;3.85;1.40;;;;;;;;;;4992451;28;20236;-52
2022/07/22 13:06:17;;;;;;;1.88;1.77;;;;;;;;;;4988049;28;20244;-51
2022/07/22 13:08:43;;;;;;;1.80;1.70;;;;;;;;;;4989301;28;20795;-52
2022/07/22 13:11:10;;;;;;;1.50;1.40;;;;;;;;;;4990047;28;21167;-52
2022/07/22 13:13:36;;;;;;;1.35;1.25;;;;;;;;;;4994464;28;20730;-52
2022/07/22 13:16:03;;;;;;;1.50;1.40;;;;;;;;;;4994796;28;20238;-51
2022/07/22 13:18:30;;;;;;;1.80;1.70;;;;;;;;;;5001108;28;20244;-50
2022/07/22 13:20:57;;;;;;;1.67;1.58;;;;;;;;;;4999432;28;20255;-51
2022/07/22 13:23:24;;;;;;;1.92;1.83;;;;;;;;;;5000903;28;20261;-51
2022/07/22 13:25:51;;;;;;;1.80;1.70;;;;;;;;;;5000126;28;20243;-52
2022/07/22 13:28:17;;;;;;;1.77;1.60;;;;;;;;;;4997498;28;20242;-51
2022/07/22 13:30:44;;;;;;;1.20;1.20;;;;;;;;;;4999517;28;20239;-52
2022/07/22 13:33:10;;;;;;;1.80;1.70;;;;;;;;;;4999239;28;20308;-52
2022/07/22 13:35:38;;;;;;;1.58;1.48;;;;;;;;;;4998978;28;20693;-52
2022/07/22 13:38:04;;;;;;;1.83;1.73;;;;;;;;;;4999334;28;20316;-51
2022/07/22 13:40:31;;;;;;;1.52;1.25;;;;;;;;;;4995948;28;20240;-52
2022/07/22 13:42:58;;;;;;;2.17;1.50;;;;;;;;;;4995356;28;21067;-51
2022/07/22 13:45:24;;;;;;;1.70;1.55;;;;;;;;;;4999788;28;20253;-52
2022/07/22 13:47:51;;;;;;;1.90;1.80;;;;;;;;;;5008400;28;20233;-51
2022/07/22 13:50:17;;;;;;;1.67;1.58;;;;;;;;;;5003206;28;20618;-53
2022/07/22 13:52:46;;;;;;;1.60;1.50;;;;;;;;;;4998663;28;20320;-51
2022/07/22 13:55:12;;;;;;;1.70;1.60;;;;;;;;;;4995365;28;20308;-51
2022/07/22 13:57:40;;;;;;;1.30;1.15;;;;;;;;;;4999946;28;20253;-51
2022/07/22 14:00:08;;;;;;;1.60;1.50;;;;;;;;;;4995024;28;20248;-52
2022/07/22 14:02:34;;;;;;;1.98;1.88;;;;;;;;;;5005833;28;20237;-53
2022/07/22 14:05:00;;;;;;;1.50;1.40;;;;;;;;;;4999743;28;20438;-51
2022/07/22 14:07:27;;;;;;;1.40;1.38;;;;;;;;;;4997096;28;20251;-52
2022/07/22 14:09:55;;;;;;;1.60;1.42;;;;;;;;;;4996039;28;20285;-51
2022/07/22 14:12:21;;;;;;;1.48;1.38;;;;;;;;;;4998007;28;20701;-51
2022/07/22 14:14:47;;;;;;;1.70;1.60;;;;;;;;;;5003868;28;20237;-51
2022/07/22 14:17:14;;;;;;;1.88;1.77;;;;;;;;;;5000932;28;20241;-51
2022/07/22 14:19:40;;;;;;;2.30;1.30;;;;;;;;;;4996922;28;20607;-53
2022/07/22 14:22:06;;;;;;;2.28;1.58;;;;;;;;;;4996206;28;20236;-52
2022/07/22 14:24:33;;;;;;;1.50;1.40;;;;;;;;;;4999658;28;20226;-52
2022/07/22 14:27:00;;;;;;;2.63;1.60;;;;;;;;;;4998379;28;20244;-52
2022/07/22 14:29:27;;;;;;;3.53;1.20;;;;;;;;;;5000700;28;20241;-52
2022/07/22 14:31:53;;;;;;;1.80;1.70;;;;;;;;;;4999482;28;20237;-52
2022/07/22 14:34:19;;;;;;;1.55;1.45;;;;;;;;;;4996632;28;20241;-51
2022/07/22 14:36:46;;;;;;;1.40;1.35;;;;;;;;;;4996916;28;20233;-53
2022/07/22 14:39:12;;;;;;;1.45;1.40;;;;;;;;;;4994039;28;20232;-52
2022/07/22 14:41:39;;;;;;;1.52;1.42;;;;;;;;;;4994179;28;20244;-52